sensor_id;sensor_type;location;lat;lon;timestamp;P1;durP1;ratioP1;P2;durP2;ratioP2
26977;SDS011;56314;48.088;11.642;2022-08-01T00:01:13;2.60;;;2.40;;
26977;SDS011;56314;48.088;11.642;2022-08-01T00:03:39;4.05;;;2.63;;
26977;SDS011;56314;48.088;11.642;2022-08-01T00:06:04;5.82;;;2.60;;
26977;SDS011;56314;48.088;11.642;2022-08-01T00:08:29;3.58;;;2.60;;
26977;SDS011;56314;48.088;11.642;2022-08-01T00:10:55;2.75;;;2.55;;
26977;SDS011;56314;48.088;11.642;2022-08-01T00:13:21;4.13;;;2.80;;
26977;SDS011;56314;48.088;11.642;2022-08-01T00:15:46;3.35;;;2.67;;
26977;SDS011;56314;48.088;11.642;2022-08-01T00:18:11;3.13;;;2.55;;
26977;SDS011;56314;48.088;11.642;2022-08-01T00:20:37;2.72;;;2.35;;
26977;SDS011;56314;48.088;11.642;2022-08-01T00:23:02;3.33;;;2.72;;
26977;SDS011;56314;48.088;11.642;2022-08-01T00:25:28;6.50;;;2.65;;
26977;SDS011;56314;48.088;11.642;2022-08-01T00:27:53;3.63;;;2.70;;
26977;SDS011;56314;48.088;11.642;2022-08-01T00:30:19;4.50;;;2.75;;
26977;SDS011;56314;48.088;11.642;2022-08-01T00:32:44;3.05;;;2.83;;
26977;SDS011;56314;48.088;11.642;2022-08-01T00:35:10;3.65;;;2.70;;
26977;SDS011;56314;48.088;11.642;2022-08-01T00:37:36;4.65;;;2.20;;
26977;SDS011;56314;48.088;11.642;2022-08-01T00:40:02;3.35;;;2.83;;
26977;SDS011;56314;48.088;11.642;2022-08-01T00:42:28;3.75;;;3.17;;
26977;SDS011;56314;48.088;11.642;2022-08-01T00:44:53;4.53;;;3.00;;
26977;SDS011;56314;48.088;11.642;2022-08-01T00:47:18;3.25;;;2.92;;
26977;SDS011;56314;48.088;11.642;2022-08-01T00:49:44;4.45;;;2.65;;
26977;SDS011;56314;48.088;11.642;2022-08-01T00:52:09;4.55;;;2.80;;
26977;SDS011;56314;48.088;11.642;2022-08-01T00:54:35;4.50;;;2.83;;
26977;SDS011;56314;48.088;11.642;2022-08-01T00:57:01;3.03;;;2.72;;
26977;SDS011;56314;48.088;11.642;2022-08-01T00:59:28;3.95;;;2.65;;
26977;SDS011;56314;48.088;11.642;2022-08-01T01:01:53;3.88;;;2.97;;
26977;SDS011;56314;48.088;11.642;2022-08-01T01:04:19;2.80;;;2.60;;
26977;SDS011;56314;48.088;11.642;2022-08-01T01:09:52;2.90;;;2.70;;
26977;SDS011;56314;48.088;11.642;2022-08-01T01:15:32;5.15;;;2.65;;
26977;SDS011;56314;48.088;11.642;2022-08-01T01:18:23;5.25;;;2.97;;
26977;SDS011;56314;48.088;11.642;2022-08-01T01:20:58;3.38;;;3.08;;
26977;SDS011;56314;48.088;11.642;2022-08-01T01:29:41;4.95;;;2.60;;
26977;SDS011;56314;48.088;11.642;2022-08-01T01:32:09;3.50;;;3.08;;
26977;SDS011;56314;48.088;11.642;2022-08-01T01:34:40;3.70;;;3.28;;
26977;SDS011;56314;48.088;11.642;2022-08-01T01:37:10;3.60;;;2.92;;
26977;SDS011;56314;48.088;11.642;2022-08-01T01:39:39;3.70;;;2.72;;
26977;SDS011;56314;48.088;11.642;2022-08-01T01:42:06;3.30;;;3.00;;
26977;SDS011;56314;48.088;11.642;2022-08-01T01:44:32;3.67;;;2.95;;
26977;SDS011;56314;48.088;11.642;2022-08-01T01:47:00;4.70;;;2.80;;
26977;SDS011;56314;48.088;11.642;2022-08-01T01:49:27;3.70;;;2.80;;
26977;SDS011;56314;48.088;11.642;2022-08-01T01:51:54;3.72;;;2.60;;
26977;SDS011;56314;48.088;11.642;2022-08-01T01:54:22;3.00;;;2.70;;
26977;SDS011;56314;48.088;11.642;2022-08-01T01:56:52;3.25;;;2.70;;
26977;SDS011;56314;48.088;11.642;2022-08-01T01:59:24;4.85;;;2.90;;
26977;SDS011;56314;48.088;11.642;2022-08-01T02:01:52;5.97;;;2.80;;
26977;SDS011;56314;48.088;11.642;2022-08-01T02:04:20;3.30;;;2.88;;
26977;SDS011;56314;48.088;11.642;2022-08-01T02:06:46;3.08;;;2.75;;
26977;SDS011;56314;48.088;11.642;2022-08-01T02:09:15;5.43;;;2.65;;
26977;SDS011;56314;48.088;11.642;2022-08-01T02:11:43;3.60;;;2.80;;
26977;SDS011;56314;48.088;11.642;2022-08-01T02:14:11;3.95;;;3.25;;
26977;SDS011;56314;48.088;11.642;2022-08-01T02:16:39;3.70;;;2.65;;
26977;SDS011;56314;48.088;11.642;2022-08-01T02:19:06;5.38;;;2.83;;
26977;SDS011;56314;48.088;11.642;2022-08-01T02:21:34;4.07;;;2.85;;
26977;SDS011;56314;48.088;11.642;2022-08-01T02:24:29;3.72;;;2.70;;
26977;SDS011;56314;48.088;11.642;2022-08-01T02:27:15;3.88;;;2.67;;
26977;SDS011;56314;48.088;11.642;2022-08-01T02:30:05;3.03;;;2.67;;
26977;SDS011;56314;48.088;11.642;2022-08-01T02:32:34;5.50;;;2.78;;
26977;SDS011;56314;48.088;11.642;2022-08-01T02:35:03;2.97;;;2.60;;
26977;SDS011;56314;48.088;11.642;2022-08-01T02:37:33;3.00;;;2.60;;
26977;SDS011;56314;48.088;11.642;2022-08-01T02:40:01;2.95;;;2.65;;
26977;SDS011;56314;48.088;11.642;2022-08-01T02:42:28;3.10;;;2.70;;
26977;SDS011;56314;48.088;11.642;2022-08-01T02:44:56;2.70;;;2.50;;
26977;SDS011;56314;48.088;11.642;2022-08-01T02:47:22;3.40;;;2.80;;
26977;SDS011;56314;48.088;11.642;2022-08-01T02:49:50;6.88;;;2.83;;
26977;SDS011;56314;48.088;11.642;2022-08-01T02:52:18;3.30;;;2.47;;
26977;SDS011;56314;48.088;11.642;2022-08-01T02:54:47;5.07;;;2.95;;
26977;SDS011;56314;48.088;11.642;2022-08-01T02:57:14;3.00;;;2.80;;
26977;SDS011;56314;48.088;11.642;2022-08-01T02:59:42;4.57;;;2.75;;
26977;SDS011;56314;48.088;11.642;2022-08-01T03:02:09;3.10;;;2.80;;
26977;SDS011;56314;48.088;11.642;2022-08-01T03:04:36;2.75;;;2.55;;
26977;SDS011;56314;48.088;11.642;2022-08-01T03:07:04;3.08;;;2.80;;
26977;SDS011;56314;48.088;11.642;2022-08-01T03:09:34;5.28;;;3.15;;
26977;SDS011;56314;48.088;11.642;2022-08-01T03:12:03;3.00;;;2.70;;
26977;SDS011;56314;48.088;11.642;2022-08-01T03:14:31;3.10;;;2.53;;
26977;SDS011;56314;48.088;11.642;2022-08-01T03:17:01;3.78;;;3.08;;
26977;SDS011;56314;48.088;11.642;2022-08-01T03:19:29;3.15;;;2.95;;
26977;SDS011;56314;48.088;11.642;2022-08-01T03:21:56;3.30;;;2.60;;
26977;SDS011;56314;48.088;11.642;2022-08-01T03:24:23;2.60;;;2.40;;
26977;SDS011;56314;48.088;11.642;2022-08-01T03:26:50;3.40;;;3.10;;
26977;SDS011;56314;48.088;11.642;2022-08-01T03:29:21;3.30;;;3.00;;
26977;SDS011;56314;48.088;11.642;2022-08-01T03:31:50;3.20;;;2.90;;
26977;SDS011;56314;48.088;11.642;2022-08-01T03:34:17;5.15;;;3.33;;
26977;SDS011;56314;48.088;11.642;2022-08-01T03:37:05;3.92;;;2.88;;
26977;SDS011;56314;48.088;11.642;2022-08-01T03:39:49;4.75;;;2.80;;
26977;SDS011;56314;48.088;11.642;2022-08-01T03:42:20;3.53;;;2.85;;
26977;SDS011;56314;48.088;11.642;2022-08-01T03:44:54;3.08;;;2.70;;
26977;SDS011;56314;48.088;11.642;2022-08-01T03:47:29;6.50;;;3.20;;
26977;SDS011;56314;48.088;11.642;2022-08-01T03:52:24;7.45;;;5.07;;
26977;SDS011;56314;48.088;11.642;2022-08-01T03:54:52;5.00;;;4.50;;
26977;SDS011;56314;48.088;11.642;2022-08-01T03:57:20;6.60;;;3.30;;
26977;SDS011;56314;48.088;11.642;2022-08-01T03:59:47;4.15;;;3.05;;
26977;SDS011;56314;48.088;11.642;2022-08-01T04:02:14;4.03;;;2.83;;
26977;SDS011;56314;48.088;11.642;2022-08-01T04:04:40;3.78;;;2.97;;
26977;SDS011;56314;48.088;11.642;2022-08-01T04:07:20;5.13;;;2.85;;
26977;SDS011;56314;48.088;11.642;2022-08-01T04:09:46;7.22;;;2.85;;
26977;SDS011;56314;48.088;11.642;2022-08-01T04:12:12;7.45;;;2.83;;
26977;SDS011;56314;48.088;11.642;2022-08-01T04:14:37;4.93;;;2.65;;
26977;SDS011;56314;48.088;11.642;2022-08-01T04:17:03;4.13;;;2.90;;
26977;SDS011;56314;48.088;11.642;2022-08-01T04:19:28;2.80;;;2.60;;
26977;SDS011;56314;48.088;11.642;2022-08-01T04:21:53;4.18;;;2.95;;
26977;SDS011;56314;48.088;11.642;2022-08-01T04:24:19;4.90;;;3.08;;
26977;SDS011;56314;48.088;11.642;2022-08-01T04:26:48;4.38;;;3.08;;
26977;SDS011;56314;48.088;11.642;2022-08-01T04:29:16;3.45;;;3.10;;
26977;SDS011;56314;48.088;11.642;2022-08-01T04:31:45;3.47;;;2.65;;
26977;SDS011;56314;48.088;11.642;2022-08-01T04:34:13;4.40;;;2.85;;
26977;SDS011;56314;48.088;11.642;2022-08-01T04:36:42;6.22;;;3.03;;
26977;SDS011;56314;48.088;11.642;2022-08-01T04:39:10;6.75;;;2.90;;
26977;SDS011;56314;48.088;11.642;2022-08-01T04:41:37;2.63;;;2.42;;
26977;SDS011;56314;48.088;11.642;2022-08-01T04:44:04;4.25;;;2.95;;
26977;SDS011;56314;48.088;11.642;2022-08-01T04:46:29;3.88;;;3.03;;
26977;SDS011;56314;48.088;11.642;2022-08-01T04:48:57;4.32;;;2.58;;
26977;SDS011;56314;48.088;11.642;2022-08-01T04:51:23;3.20;;;2.78;;
26977;SDS011;56314;48.088;11.642;2022-08-01T04:53:49;3.63;;;2.97;;
26977;SDS011;56314;48.088;11.642;2022-08-01T04:56:20;3.05;;;2.78;;
26977;SDS011;56314;48.088;11.642;2022-08-01T04:58:46;5.88;;;3.00;;
26977;SDS011;56314;48.088;11.642;2022-08-01T05:01:12;5.35;;;2.85;;
26977;SDS011;56314;48.088;11.642;2022-08-01T05:03:37;4.10;;;2.92;;
26977;SDS011;56314;48.088;11.642;2022-08-01T05:06:03;5.30;;;3.20;;
26977;SDS011;56314;48.088;11.642;2022-08-01T05:08:28;3.38;;;3.08;;
26977;SDS011;56314;48.088;11.642;2022-08-01T05:10:54;4.43;;;2.83;;
26977;SDS011;56314;48.088;11.642;2022-08-01T05:13:20;3.65;;;2.80;;
26977;SDS011;56314;48.088;11.642;2022-08-01T05:15:45;3.85;;;2.95;;
26977;SDS011;56314;48.088;11.642;2022-08-01T05:18:11;4.40;;;3.13;;
26977;SDS011;56314;48.088;11.642;2022-08-01T05:20:36;3.35;;;2.95;;
26977;SDS011;56314;48.088;11.642;2022-08-01T05:23:02;5.28;;;3.50;;
26977;SDS011;56314;48.088;11.642;2022-08-01T05:25:28;3.53;;;3.10;;
26977;SDS011;56314;48.088;11.642;2022-08-01T05:27:54;3.30;;;2.80;;
26977;SDS011;56314;48.088;11.642;2022-08-01T05:30:19;5.40;;;2.92;;
26977;SDS011;56314;48.088;11.642;2022-08-01T05:32:45;5.75;;;3.10;;
26977;SDS011;56314;48.088;11.642;2022-08-01T05:35:10;4.85;;;3.15;;
26977;SDS011;56314;48.088;11.642;2022-08-01T05:37:35;2.83;;;2.50;;
26977;SDS011;56314;48.088;11.642;2022-08-01T05:40:01;3.10;;;2.85;;
26977;SDS011;56314;48.088;11.642;2022-08-01T05:42:26;5.00;;;3.25;;
26977;SDS011;56314;48.088;11.642;2022-08-01T05:44:52;4.70;;;3.00;;
26977;SDS011;56314;48.088;11.642;2022-08-01T05:47:17;4.57;;;3.05;;
26977;SDS011;56314;48.088;11.642;2022-08-01T05:49:43;7.05;;;2.58;;
26977;SDS011;56314;48.088;11.642;2022-08-01T05:52:09;3.13;;;2.67;;
26977;SDS011;56314;48.088;11.642;2022-08-01T05:54:35;2.88;;;2.67;;
26977;SDS011;56314;48.088;11.642;2022-08-01T05:57:00;3.42;;;2.55;;
26977;SDS011;56314;48.088;11.642;2022-08-01T05:59:26;3.17;;;2.90;;
26977;SDS011;56314;48.088;11.642;2022-08-01T06:01:52;3.67;;;2.70;;
26977;SDS011;56314;48.088;11.642;2022-08-01T06:04:18;5.65;;;2.83;;
26977;SDS011;56314;48.088;11.642;2022-08-01T06:06:43;3.25;;;2.88;;
26977;SDS011;56314;48.088;11.642;2022-08-01T06:09:08;2.60;;;2.40;;
26977;SDS011;56314;48.088;11.642;2022-08-01T06:11:34;2.70;;;2.50;;
26977;SDS011;56314;48.088;11.642;2022-08-01T06:13:59;3.15;;;2.53;;
26977;SDS011;56314;48.088;11.642;2022-08-01T06:16:25;4.78;;;2.55;;
26977;SDS011;56314;48.088;11.642;2022-08-01T06:18:50;2.70;;;2.38;;
26977;SDS011;56314;48.088;11.642;2022-08-01T06:21:15;7.07;;;2.53;;
26977;SDS011;56314;48.088;11.642;2022-08-01T06:23:41;3.88;;;2.88;;
26977;SDS011;56314;48.088;11.642;2022-08-01T06:26:07;5.18;;;2.75;;
26977;SDS011;56314;48.088;11.642;2022-08-01T06:28:33;4.97;;;2.70;;
26977;SDS011;56314;48.088;11.642;2022-08-01T06:30:58;3.13;;;2.55;;
26977;SDS011;56314;48.088;11.642;2022-08-01T06:33:24;5.93;;;2.78;;
26977;SDS011;56314;48.088;11.642;2022-08-01T06:35:50;2.78;;;2.50;;
26977;SDS011;56314;48.088;11.642;2022-08-01T06:38:15;5.38;;;2.80;;
26977;SDS011;56314;48.088;11.642;2022-08-01T06:40:41;2.72;;;2.47;;
26977;SDS011;56314;48.088;11.642;2022-08-01T06:43:06;2.78;;;2.47;;
26977;SDS011;56314;48.088;11.642;2022-08-01T06:45:32;3.33;;;2.80;;
26977;SDS011;56314;48.088;11.642;2022-08-01T06:47:57;3.47;;;2.55;;
26977;SDS011;56314;48.088;11.642;2022-08-01T06:50:23;3.75;;;2.60;;
26977;SDS011;56314;48.088;11.642;2022-08-01T06:52:48;4.20;;;2.13;;
26977;SDS011;56314;48.088;11.642;2022-08-01T06:55:14;5.97;;;2.72;;
26977;SDS011;56314;48.088;11.642;2022-08-01T06:57:47;4.18;;;2.58;;
26977;SDS011;56314;48.088;11.642;2022-08-01T07:00:14;4.72;;;2.47;;
26977;SDS011;56314;48.088;11.642;2022-08-01T07:02:43;4.38;;;2.50;;
26977;SDS011;56314;48.088;11.642;2022-08-01T07:05:09;3.30;;;2.38;;
26977;SDS011;56314;48.088;11.642;2022-08-01T07:07:34;3.67;;;2.67;;
26977;SDS011;56314;48.088;11.642;2022-08-01T07:10:00;5.40;;;2.70;;
26977;SDS011;56314;48.088;11.642;2022-08-01T07:12:25;2.65;;;2.30;;
26977;SDS011;56314;48.088;11.642;2022-08-01T07:14:50;2.78;;;2.58;;
26977;SDS011;56314;48.088;11.642;2022-08-01T07:17:16;3.00;;;2.70;;
26977;SDS011;56314;48.088;11.642;2022-08-01T07:19:41;3.92;;;2.50;;
26977;SDS011;56314;48.088;11.642;2022-08-01T07:22:06;3.45;;;2.50;;
26977;SDS011;56314;48.088;11.642;2022-08-01T07:24:32;4.05;;;2.90;;
26977;SDS011;56314;48.088;11.642;2022-08-01T07:26:57;3.17;;;2.45;;
26977;SDS011;56314;48.088;11.642;2022-08-01T07:29:23;2.88;;;2.67;;
26977;SDS011;56314;48.088;11.642;2022-08-01T07:31:53;3.50;;;2.70;;
26977;SDS011;56314;48.088;11.642;2022-08-01T07:34:21;2.85;;;2.55;;
26977;SDS011;56314;48.088;11.642;2022-08-01T07:36:47;5.25;;;2.72;;
26977;SDS011;56314;48.088;11.642;2022-08-01T07:39:12;4.35;;;2.80;;
26977;SDS011;56314;48.088;11.642;2022-08-01T07:41:38;4.10;;;2.53;;
26977;SDS011;56314;48.088;11.642;2022-08-01T07:44:03;3.88;;;2.75;;
26977;SDS011;56314;48.088;11.642;2022-08-01T07:46:29;4.25;;;2.60;;
26977;SDS011;56314;48.088;11.642;2022-08-01T07:48:55;4.03;;;2.60;;
26977;SDS011;56314;48.088;11.642;2022-08-01T07:51:21;3.10;;;2.47;;
26977;SDS011;56314;48.088;11.642;2022-08-01T07:53:46;3.65;;;2.83;;
26977;SDS011;56314;48.088;11.642;2022-08-01T07:56:11;4.97;;;3.15;;
26977;SDS011;56314;48.088;11.642;2022-08-01T07:58:37;2.97;;;2.75;;
26977;SDS011;56314;48.088;11.642;2022-08-01T08:01:02;3.08;;;2.78;;
26977;SDS011;56314;48.088;11.642;2022-08-01T08:03:28;3.42;;;3.13;;
26977;SDS011;56314;48.088;11.642;2022-08-01T08:05:53;3.38;;;2.67;;
26977;SDS011;56314;48.088;11.642;2022-08-01T08:08:18;3.35;;;2.88;;
26977;SDS011;56314;48.088;11.642;2022-08-01T08:10:44;3.47;;;3.17;;
26977;SDS011;56314;48.088;11.642;2022-08-01T08:13:09;3.00;;;2.80;;
26977;SDS011;56314;48.088;11.642;2022-08-01T08:15:35;3.25;;;2.95;;
26977;SDS011;56314;48.088;11.642;2022-08-01T08:18:00;2.90;;;2.70;;
26977;SDS011;56314;48.088;11.642;2022-08-01T08:20:25;3.92;;;2.88;;
26977;SDS011;56314;48.088;11.642;2022-08-01T08:22:53;2.92;;;2.60;;
26977;SDS011;56314;48.088;11.642;2022-08-01T08:25:19;4.40;;;2.70;;
26977;SDS011;56314;48.088;11.642;2022-08-01T08:27:45;3.97;;;2.78;;
26977;SDS011;56314;48.088;11.642;2022-08-01T08:30:11;3.85;;;2.85;;
26977;SDS011;56314;48.088;11.642;2022-08-01T08:32:37;3.30;;;2.65;;
26977;SDS011;56314;48.088;11.642;2022-08-01T08:35:04;3.28;;;2.97;;
26977;SDS011;56314;48.088;11.642;2022-08-01T08:37:30;3.25;;;3.05;;
26977;SDS011;56314;48.088;11.642;2022-08-01T08:39:56;4.03;;;2.70;;
26977;SDS011;56314;48.088;11.642;2022-08-01T08:42:21;4.10;;;3.05;;
26977;SDS011;56314;48.088;11.642;2022-08-01T08:44:47;2.97;;;2.65;;
26977;SDS011;56314;48.088;11.642;2022-08-01T08:47:13;4.20;;;2.90;;
26977;SDS011;56314;48.088;11.642;2022-08-01T08:49:39;3.40;;;3.10;;
26977;SDS011;56314;48.088;11.642;2022-08-01T08:52:08;3.10;;;2.85;;
26977;SDS011;56314;48.088;11.642;2022-08-01T08:54:34;6.70;;;2.85;;
26977;SDS011;56314;48.088;11.642;2022-08-01T08:57:01;4.00;;;3.00;;
26977;SDS011;56314;48.088;11.642;2022-08-01T08:59:27;2.90;;;2.58;;
26977;SDS011;56314;48.088;11.642;2022-08-01T09:01:53;2.22;;;1.90;;
26977;SDS011;56314;48.088;11.642;2022-08-01T09:04:20;3.10;;;2.50;;
26977;SDS011;56314;48.088;11.642;2022-08-01T09:06:49;3.40;;;3.10;;
26977;SDS011;56314;48.088;11.642;2022-08-01T09:09:15;3.50;;;2.70;;
26977;SDS011;56314;48.088;11.642;2022-08-01T09:11:40;4.13;;;2.50;;
26977;SDS011;56314;48.088;11.642;2022-08-01T09:16:39;4.20;;;2.60;;
26977;SDS011;56314;48.088;11.642;2022-08-01T09:19:07;3.85;;;2.40;;
26977;SDS011;56314;48.088;11.642;2022-08-01T09:21:54;2.95;;;2.53;;
26977;SDS011;56314;48.088;11.642;2022-08-01T09:24:22;6.43;;;2.60;;
26977;SDS011;56314;48.088;11.642;2022-08-01T09:26:49;3.35;;;2.53;;
26977;SDS011;56314;48.088;11.642;2022-08-01T09:29:20;3.08;;;2.47;;
26977;SDS011;56314;48.088;11.642;2022-08-01T09:31:47;3.55;;;2.85;;
26977;SDS011;56314;48.088;11.642;2022-08-01T09:34:13;3.03;;;2.63;;
26977;SDS011;56314;48.088;11.642;2022-08-01T09:39:16;5.50;;;2.75;;
26977;SDS011;56314;48.088;11.642;2022-08-01T09:41:42;5.05;;;2.90;;
26977;SDS011;56314;48.088;11.642;2022-08-01T09:44:07;5.28;;;2.55;;
26977;SDS011;56314;48.088;11.642;2022-08-01T09:46:32;5.20;;;1.77;;
26977;SDS011;56314;48.088;11.642;2022-08-01T09:49:02;2.75;;;2.33;;
26977;SDS011;56314;48.088;11.642;2022-08-01T09:51:30;3.85;;;2.30;;
26977;SDS011;56314;48.088;11.642;2022-08-01T09:53:57;6.07;;;2.50;;
26977;SDS011;56314;48.088;11.642;2022-08-01T09:56:23;5.60;;;2.20;;
26977;SDS011;56314;48.088;11.642;2022-08-01T10:01:15;3.27;;;2.20;;
26977;SDS011;56314;48.088;11.642;2022-08-01T10:03:40;2.20;;;2.00;;
26977;SDS011;56314;48.088;11.642;2022-08-01T10:06:18;2.38;;;2.20;;
26977;SDS011;56314;48.088;11.642;2022-08-01T10:08:47;4.10;;;1.95;;
26977;SDS011;56314;48.088;11.642;2022-08-01T10:11:13;2.67;;;2.30;;
26977;SDS011;56314;48.088;11.642;2022-08-01T10:13:39;2.15;;;1.98;;
26977;SDS011;56314;48.088;11.642;2022-08-01T10:16:05;2.30;;;2.20;;
26977;SDS011;56314;48.088;11.642;2022-08-01T10:18:32;2.17;;;2.00;;
26977;SDS011;56314;48.088;11.642;2022-08-01T10:20:59;3.63;;;2.10;;
26977;SDS011;56314;48.088;11.642;2022-08-01T10:23:27;2.28;;;2.00;;
26977;SDS011;56314;48.088;11.642;2022-08-01T10:25:55;2.20;;;1.73;;
26977;SDS011;56314;48.088;11.642;2022-08-01T10:28:23;3.15;;;1.83;;
26977;SDS011;56314;48.088;11.642;2022-08-01T10:30:50;2.65;;;1.60;;
26977;SDS011;56314;48.088;11.642;2022-08-01T10:33:16;2.17;;;1.80;;
26977;SDS011;56314;48.088;11.642;2022-08-01T10:35:46;3.38;;;1.98;;
26977;SDS011;56314;48.088;11.642;2022-08-01T10:38:12;3.40;;;2.30;;
26977;SDS011;56314;48.088;11.642;2022-08-01T10:40:38;2.83;;;1.95;;
26977;SDS011;56314;48.088;11.642;2022-08-01T10:43:06;3.15;;;2.10;;
26977;SDS011;56314;48.088;11.642;2022-08-01T10:45:32;4.15;;;2.60;;
26977;SDS011;56314;48.088;11.642;2022-08-01T10:50:36;1.88;;;1.67;;
26977;SDS011;56314;48.088;11.642;2022-08-01T10:53:27;3.92;;;2.80;;
26977;SDS011;56314;48.088;11.642;2022-08-01T10:58:37;2.95;;;1.50;;
26977;SDS011;56314;48.088;11.642;2022-08-01T11:06:25;3.42;;;1.83;;
26977;SDS011;56314;48.088;11.642;2022-08-01T11:09:00;2.20;;;1.98;;
26977;SDS011;56314;48.088;11.642;2022-08-01T11:11:30;2.88;;;1.75;;
26977;SDS011;56314;48.088;11.642;2022-08-01T11:16:38;2.03;;;1.83;;
26977;SDS011;56314;48.088;11.642;2022-08-01T11:19:05;3.40;;;2.17;;
26977;SDS011;56314;48.088;11.642;2022-08-01T11:24:54;2.28;;;1.80;;
26977;SDS011;56314;48.088;11.642;2022-08-01T11:27:16;2.05;;;1.73;;
26977;SDS011;56314;48.088;11.642;2022-08-01T11:32:54;2.22;;;2.03;;
26977;SDS011;56314;48.088;11.642;2022-08-01T11:35:24;4.47;;;2.17;;
26977;SDS011;56314;48.088;11.642;2022-08-01T11:37:52;3.53;;;2.15;;
26977;SDS011;56314;48.088;11.642;2022-08-01T11:40:22;1.75;;;1.55;;
26977;SDS011;56314;48.088;11.642;2022-08-01T11:42:50;2.90;;;1.67;;
26977;SDS011;56314;48.088;11.642;2022-08-01T11:45:54;2.63;;;1.80;;
26977;SDS011;56314;48.088;11.642;2022-08-01T11:48:24;2.53;;;1.88;;
26977;SDS011;56314;48.088;11.642;2022-08-01T11:50:51;2.38;;;1.90;;
26977;SDS011;56314;48.088;11.642;2022-08-01T11:53:18;5.18;;;1.98;;
26977;SDS011;56314;48.088;11.642;2022-08-01T11:55:51;2.28;;;2.08;;
26977;SDS011;56314;48.088;11.642;2022-08-01T11:58:22;3.17;;;1.77;;
26977;SDS011;56314;48.088;11.642;2022-08-01T12:00:55;2.22;;;1.90;;
26977;SDS011;56314;48.088;11.642;2022-08-01T12:03:23;2.38;;;1.60;;
26977;SDS011;56314;48.088;11.642;2022-08-01T12:05:57;2.78;;;1.75;;
26977;SDS011;56314;48.088;11.642;2022-08-01T12:08:24;3.15;;;1.88;;
26977;SDS011;56314;48.088;11.642;2022-08-01T12:10:51;2.38;;;1.90;;
26977;SDS011;56314;48.088;11.642;2022-08-01T12:13:16;2.15;;;1.60;;
26977;SDS011;56314;48.088;11.642;2022-08-01T12:15:43;3.15;;;1.63;;
26977;SDS011;56314;48.088;11.642;2022-08-01T12:18:10;2.65;;;1.73;;
26977;SDS011;56314;48.088;11.642;2022-08-01T12:20:39;2.83;;;1.65;;
26977;SDS011;56314;48.088;11.642;2022-08-01T12:23:06;3.35;;;1.77;;
26977;SDS011;56314;48.088;11.642;2022-08-01T12:25:34;2.72;;;1.40;;
26977;SDS011;56314;48.088;11.642;2022-08-01T12:28:04;1.77;;;1.35;;
26977;SDS011;56314;48.088;11.642;2022-08-01T12:30:30;2.30;;;1.88;;
26977;SDS011;56314;48.088;11.642;2022-08-01T12:33:00;1.90;;;1.58;;
26977;SDS011;56314;48.088;11.642;2022-08-01T12:35:27;2.42;;;1.65;;
26977;SDS011;56314;48.088;11.642;2022-08-01T12:37:54;1.70;;;1.60;;
26977;SDS011;56314;48.088;11.642;2022-08-01T12:40:23;3.17;;;1.60;;
26977;SDS011;56314;48.088;11.642;2022-08-01T12:42:55;1.48;;;1.30;;
26977;SDS011;56314;48.088;11.642;2022-08-01T12:45:25;2.60;;;1.90;;
26977;SDS011;56314;48.088;11.642;2022-08-01T12:47:52;1.67;;;1.40;;
26977;SDS011;56314;48.088;11.642;2022-08-01T12:50:19;3.28;;;1.67;;
26977;SDS011;56314;48.088;11.642;2022-08-01T12:52:46;1.75;;;1.50;;
26977;SDS011;56314;48.088;11.642;2022-08-01T12:55:22;1.77;;;1.50;;
26977;SDS011;56314;48.088;11.642;2022-08-01T12:58:05;4.22;;;1.55;;
26977;SDS011;56314;48.088;11.642;2022-08-01T13:00:34;3.65;;;1.65;;
26977;SDS011;56314;48.088;11.642;2022-08-01T13:05:26;4.37;;;1.60;;
26977;SDS011;56314;48.088;11.642;2022-08-01T13:07:52;1.63;;;1.30;;
26977;SDS011;56314;48.088;11.642;2022-08-01T13:10:28;1.77;;;1.52;;
26977;SDS011;56314;48.088;11.642;2022-08-01T13:12:56;2.15;;;1.40;;
26977;SDS011;56314;48.088;11.642;2022-08-01T13:15:30;3.10;;;1.60;;
26977;SDS011;56314;48.088;11.642;2022-08-01T13:17:58;1.58;;;1.17;;
26977;SDS011;56314;48.088;11.642;2022-08-01T13:20:28;3.00;;;1.35;;
26977;SDS011;56314;48.088;11.642;2022-08-01T13:23:09;1.92;;;1.65;;
26977;SDS011;56314;48.088;11.642;2022-08-01T13:25:52;2.03;;;1.50;;
26977;SDS011;56314;48.088;11.642;2022-08-01T13:28:20;2.47;;;1.60;;
26977;SDS011;56314;48.088;11.642;2022-08-01T13:33:17;1.67;;;1.40;;
26977;SDS011;56314;48.088;11.642;2022-08-01T13:35:42;2.83;;;1.60;;
26977;SDS011;56314;48.088;11.642;2022-08-01T13:38:08;3.33;;;1.70;;
26977;SDS011;56314;48.088;11.642;2022-08-01T13:40:33;4.25;;;3.15;;
26977;SDS011;56314;48.088;11.642;2022-08-01T13:42:59;4.70;;;2.38;;
26977;SDS011;56314;48.088;11.642;2022-08-01T13:45:24;5.47;;;1.70;;
26977;SDS011;56314;48.088;11.642;2022-08-01T13:47:49;2.63;;;1.30;;
26977;SDS011;56314;48.088;11.642;2022-08-01T13:50:15;2.92;;;1.27;;
26977;SDS011;56314;48.088;11.642;2022-08-01T13:52:40;1.30;;;1.17;;
26977;SDS011;56314;48.088;11.642;2022-08-01T13:55:06;4.80;;;1.30;;
26977;SDS011;56314;48.088;11.642;2022-08-01T13:57:31;1.25;;;1.15;;
26977;SDS011;56314;48.088;11.642;2022-08-01T13:59:57;2.15;;;1.20;;
26977;SDS011;56314;48.088;11.642;2022-08-01T14:02:26;1.75;;;1.38;;
26977;SDS011;56314;48.088;11.642;2022-08-01T14:04:52;3.50;;;1.40;;
26977;SDS011;56314;48.088;11.642;2022-08-01T14:07:19;2.28;;;1.30;;
26977;SDS011;56314;48.088;11.642;2022-08-01T14:09:45;3.28;;;1.40;;
26977;SDS011;56314;48.088;11.642;2022-08-01T14:12:10;4.90;;;1.35;;
26977;SDS011;56314;48.088;11.642;2022-08-01T14:14:36;2.63;;;1.48;;
26977;SDS011;56314;48.088;11.642;2022-08-01T14:17:03;2.22;;;1.33;;
26977;SDS011;56314;48.088;11.642;2022-08-01T14:19:28;1.80;;;1.23;;
26977;SDS011;56314;48.088;11.642;2022-08-01T14:21:53;2.28;;;1.27;;
26977;SDS011;56314;48.088;11.642;2022-08-01T14:24:19;2.00;;;1.45;;
26977;SDS011;56314;48.088;11.642;2022-08-01T14:26:44;1.50;;;1.30;;
26977;SDS011;56314;48.088;11.642;2022-08-01T14:29:10;4.68;;;1.63;;
26977;SDS011;56314;48.088;11.642;2022-08-01T14:31:35;2.40;;;1.58;;
26977;SDS011;56314;48.088;11.642;2022-08-01T14:34:00;2.90;;;1.50;;
26977;SDS011;56314;48.088;11.642;2022-08-01T14:36:26;2.40;;;2.00;;
26977;SDS011;56314;48.088;11.642;2022-08-01T14:38:51;2.17;;;1.55;;
26977;SDS011;56314;48.088;11.642;2022-08-01T14:41:17;3.20;;;1.30;;
26977;SDS011;56314;48.088;11.642;2022-08-01T14:43:43;3.33;;;1.50;;
26977;SDS011;56314;48.088;11.642;2022-08-01T14:46:08;4.70;;;1.40;;
26977;SDS011;56314;48.088;11.642;2022-08-01T14:48:34;3.22;;;2.17;;
26977;SDS011;56314;48.088;11.642;2022-08-01T14:51:00;1.35;;;1.25;;
26977;SDS011;56314;48.088;11.642;2022-08-01T14:53:29;1.67;;;1.20;;
26977;SDS011;56314;48.088;11.642;2022-08-01T14:55:55;2.92;;;1.55;;
26977;SDS011;56314;48.088;11.642;2022-08-01T14:58:20;4.25;;;1.42;;
26977;SDS011;56314;48.088;11.642;2022-08-01T15:00:45;3.83;;;2.28;;
26977;SDS011;56314;48.088;11.642;2022-08-01T15:03:11;3.25;;;1.70;;
26977;SDS011;56314;48.088;11.642;2022-08-01T15:05:37;2.35;;;2.15;;
26977;SDS011;56314;48.088;11.642;2022-08-01T15:08:03;4.22;;;1.90;;
26977;SDS011;56314;48.088;11.642;2022-08-01T15:10:30;1.70;;;1.60;;
26977;SDS011;56314;48.088;11.642;2022-08-01T15:12:57;4.53;;;1.70;;
26977;SDS011;56314;48.088;11.642;2022-08-01T15:15:24;4.57;;;3.10;;
26977;SDS011;56314;48.088;11.642;2022-08-01T15:17:50;3.45;;;2.28;;
26977;SDS011;56314;48.088;11.642;2022-08-01T15:20:17;3.50;;;2.13;;
26977;SDS011;56314;48.088;11.642;2022-08-01T15:22:42;4.03;;;3.72;;